createdAt,value
2017-03-07T00:02:03.287Z,6.2
2017-03-07T00:07:02.582Z,6.2
2017-03-07T00:12:03.114Z,6.0
2017-03-07T00:17:03.573Z,6.0
2017-03-07T00:22:02.875Z,5.9
2017-03-07T00:27:02.693Z,6.0
2017-03-07T00:32:03.259Z,5.9
2017-03-07T00:37:03.417Z,6.0
2017-03-07T00:42:02.854Z,6.0
2017-03-07T00:47:03.395Z,6.0
2017-03-07T00:52:02.632Z,6.0
2017-03-07T00:57:03.038Z,5.9
2017-03-07T01:02:03.342Z,5.9
2017-03-07T01:07:03.442Z,5.8
2017-03-07T01:12:02.933Z,5.8
2017-03-07T01:17:03.372Z,5.7
2017-03-07T01:22:03.448Z,5.8
2017-03-07T01:27:02.885Z,5.7
2017-03-07T01:32:03.408Z,5.7
2017-03-07T01:37:03.029Z,5.7
2017-03-07T01:42:03.365Z,5.8
2017-03-07T01:47:02.815Z,5.7
2017-03-07T01:52:03.155Z,5.8
2017-03-07T01:57:02.710Z,5.8
2017-03-07T02:02:03.482Z,5.9
2017-03-07T02:07:02.842Z,5.8
2017-03-07T02:12:03.363Z,5.7
2017-03-07T02:17:03.712Z,5.7
2017-03-07T02:22:03.054Z,5.8
2017-03-07T02:27:03.400Z,5.7
2017-03-07T02:32:02.910Z,5.8
2017-03-07T02:37:03.199Z,5.8
2017-03-07T02:42:02.611Z,5.9
2017-03-07T02:47:03.215Z,5.9
2017-03-07T02:52:02.804Z,5.9
2017-03-07T02:57:03.339Z,5.9
2017-03-07T03:02:02.772Z,5.9
2017-03-07T03:07:03.089Z,5.8
2017-03-07T03:12:02.764Z,5.7
2017-03-07T03:17:03.280Z,5.6
2017-03-07T03:22:03.372Z,5.6
2017-03-07T03:27:02.706Z,5.6
2017-03-07T03:32:02.986Z,5.6
2017-03-07T03:37:03.536Z,5.5
2017-03-07T03:42:02.779Z,5.6
2017-03-07T03:47:02.996Z,5.7
2017-03-07T03:52:03.225Z,5.7
2017-03-07T03:57:03.354Z,5.7
2017-03-07T04:02:03.563Z,5.6
2017-03-07T04:07:02.973Z,5.6
2017-03-07T04:12:03.216Z,5.6
2017-03-07T04:17:03.554Z,5.6
2017-03-07T04:22:02.785Z,5.4
2017-03-07T04:27:03.159Z,5.3
2017-03-07T04:32:03.265Z,5.1
2017-03-07T04:37:03.438Z,5.0
2017-03-07T04:42:03.434Z,5.0
2017-03-07T04:47:03.587Z,5.1
2017-03-07T04:52:02.921Z,5.1
2017-03-07T04:57:03.124Z,5.2
2017-03-07T05:02:03.207Z,5.3
2017-03-07T05:07:03.437Z,5.2
2017-03-07T05:12:02.817Z,5.3
2017-03-07T05:17:03.476Z,5.3
2017-03-07T05:22:02.836Z,5.3
2017-03-07T05:27:03.669Z,5.2
2017-03-07T05:32:13.327Z,5.3
2017-03-07T05:37:03.322Z,5.2
2017-03-07T05:42:02.726Z,5.3
2017-03-07T05:47:13.249Z,5.4
2017-03-07T05:52:03.430Z,5.4
2017-03-07T05:57:02.678Z,5.5
2017-03-07T06:02:07.888Z,5.6
2017-03-07T06:07:03.129Z,5.6
2017-03-07T06:12:03.615Z,5.5
2017-03-07T06:17:12.997Z,5.6
2017-03-07T06:22:03.294Z,5.6
2017-03-07T06:27:02.888Z,5.6
2017-03-07T06:32:13.271Z,5.6
2017-03-07T06:37:03.183Z,5.6
2017-03-07T06:42:03.161Z,5.7
2017-03-07T06:47:17.448Z,5.6
2017-03-07T06:52:02.973Z,5.6
2017-03-07T06:57:03.531Z,5.6
2017-03-07T07:02:17.592Z,5.7
2017-03-07T07:07:03.476Z,6.1
2017-03-07T07:12:02.927Z,6.1
2017-03-07T07:17:18.096Z,6.5
2017-03-07T07:22:03.111Z,6.4
2017-03-07T07:27:03.585Z,6.4
2017-03-07T07:32:17.203Z,6.7
2017-03-07T07:37:03.035Z,6.6
2017-03-07T07:42:03.326Z,6.8
2017-03-07T07:47:17.105Z,6.9
2017-03-07T07:52:02.807Z,6.6
2017-03-07T07:57:03.258Z,6.5
2017-03-07T08:02:12.847Z,6.4
2017-03-07T08:07:03.498Z,6.1
2017-03-07T08:12:03.437Z,6.1
2017-03-07T08:17:13.460Z,6.0
2017-03-07T08:22:02.757Z,6.0
2017-03-07T08:27:03.535Z,6.0
2017-03-07T08:32:17.197Z,6.0
2017-03-07T08:37:03.148Z,6.2
2017-03-07T08:42:03.426Z,6.6
2017-03-07T08:47:17.914Z,6.8
2017-03-07T08:52:02.916Z,6.8
2017-03-07T08:57:03.175Z,6.5
2017-03-07T09:02:17.765Z,6.1
2017-03-07T09:07:03.592Z,6.5
2017-03-07T09:12:02.969Z,6.4
2017-03-07T09:17:16.323Z,7.1
2017-03-07T09:22:02.938Z,7.4
2017-03-07T09:27:03.205Z,7.4
2017-03-07T09:32:13.482Z,7.0
2017-03-07T09:37:03.320Z,7.0
2017-03-07T09:42:03.511Z,7.4
2017-03-07T09:47:13.100Z,7.6
2017-03-07T09:52:03.366Z,7.6
2017-03-07T09:57:03.506Z,7.6
2017-03-07T10:02:10.648Z,7.6
2017-03-07T10:07:02.951Z,7.1
2017-03-07T10:12:02.901Z,6.8
2017-03-07T10:17:13.238Z,6.5
2017-03-07T10:22:02.697Z,6.6
2017-03-07T10:27:03.106Z,6.7
2017-03-07T10:32:12.904Z,6.9
2017-03-07T10:37:03.270Z,6.9
2017-03-07T10:42:03.174Z,7.0
2017-03-07T10:47:09.623Z,6.9
2017-03-07T10:52:02.832Z,7.1
2017-03-07T10:57:02.820Z,7.7
2017-03-07T11:02:10.114Z,8.3
2017-03-07T11:07:03.155Z,8.0
2017-03-07T11:12:03.219Z,8.2
2017-03-07T11:17:03.100Z,8.2
2017-03-07T11:22:03.465Z,8.4
2017-03-07T11:27:03.088Z,8.2
2017-03-07T11:32:12.505Z,8.4
2017-03-07T11:37:02.785Z,8.7
2017-03-07T11:42:03.017Z,8.8
2017-03-07T11:47:13.429Z,9.2
2017-03-07T11:52:02.661Z,9.2
2017-03-07T11:57:02.767Z,9.3
2017-03-07T12:02:17.090Z,9.0
2017-03-07T12:07:03.321Z,9.0
2017-03-07T12:12:03.354Z,8.6
2017-03-07T12:17:13.754Z,8.3
2017-03-07T12:22:02.950Z,9.0
2017-03-07T12:27:03.441Z,9.0
2017-03-07T12:32:02.882Z,8.8
2017-03-07T12:37:03.245Z,8.4
2017-03-07T12:42:02.774Z,8.2
2017-03-07T12:47:13.497Z,8.2
2017-03-07T12:52:02.642Z,8.8
2017-03-07T12:57:03.134Z,8.8
2017-03-07T13:02:17.871Z,8.3
2017-03-07T13:07:03.303Z,8.3
2017-03-07T13:12:02.836Z,8.1
2017-03-07T13:17:13.486Z,8.0
2017-03-07T13:22:03.180Z,7.9
2017-03-07T13:27:03.184Z,8.0
2017-03-07T13:32:03.340Z,7.9
2017-03-07T13:37:03.382Z,7.9
2017-03-07T13:42:03.188Z,8.3
2017-03-07T13:47:13.334Z,9.0
2017-03-07T13:52:02.889Z,9.3
2017-03-07T13:57:03.341Z,9.1
2017-03-07T14:02:17.372Z,8.7
2017-03-07T14:07:03.044Z,8.4
2017-03-07T14:12:02.808Z,8.3
2017-03-07T14:17:17.573Z,8.2
2017-03-07T14:22:02.830Z,8.5
2017-03-07T14:27:02.856Z,8.5
2017-03-07T14:32:13.061Z,8.4
2017-03-07T14:37:03.026Z,8.0
2017-03-07T14:42:03.562Z,7.9
2017-03-07T14:47:12.985Z,8.2
2017-03-07T14:52:02.715Z,8.9
2017-03-07T14:57:03.283Z,8.3
2017-03-07T15:02:17.555Z,8.3
2017-03-07T15:07:03.046Z,8.6
2017-03-07T15:12:03.436Z,8.4
2017-03-07T15:17:13.543Z,8.1
2017-03-07T15:22:03.181Z,8.2
2017-03-07T15:27:03.563Z,7.6
2017-03-07T15:32:17.503Z,7.3
2017-03-07T15:37:02.884Z,7.1
2017-03-07T15:42:02.956Z,7.1
2017-03-07T15:47:13.619Z,7.0
2017-03-07T15:52:03.253Z,7.0
2017-03-07T15:57:03.258Z,6.9
2017-03-07T16:02:14.031Z,7.0
2017-03-07T16:07:02.851Z,7.1
2017-03-07T16:12:03.481Z,7.1
2017-03-07T16:17:13.461Z,7.6
2017-03-07T16:22:03.568Z,7.5
2017-03-07T16:27:03.317Z,7.8
2017-03-07T16:32:13.454Z,8.9
2017-03-07T16:37:03.413Z,12.1
2017-03-07T16:42:03.341Z,17.8
2017-03-07T16:47:12.638Z,17.7
2017-03-07T16:52:02.918Z,19.0
2017-03-07T16:57:03.482Z,17.1
2017-03-07T17:02:13.015Z,12.8
2017-03-07T17:07:03.603Z,11.2
2017-03-07T17:12:03.261Z,11.2
2017-03-07T17:17:18.240Z,9.5
2017-03-07T17:22:03.201Z,9.1
2017-03-07T17:27:03.365Z,9.0
2017-03-07T17:32:13.001Z,8.6
2017-03-07T17:37:02.874Z,8.2
2017-03-07T17:42:03.186Z,7.4
2017-03-07T17:47:12.890Z,7.4
2017-03-07T17:52:03.168Z,7.1
2017-03-07T17:57:02.851Z,6.8
2017-03-07T18:02:02.919Z,6.3
2017-03-07T18:07:03.643Z,6.3
2017-03-07T18:12:03.378Z,6.1
2017-03-07T18:17:03.007Z,6.0
2017-03-07T18:22:02.897Z,5.9
2017-03-07T18:27:03.329Z,5.9
2017-03-07T18:32:03.099Z,5.8
2017-03-07T18:37:02.783Z,5.7
2017-03-07T18:42:02.832Z,5.5
2017-03-07T18:47:02.936Z,5.5
2017-03-07T18:52:02.609Z,5.5
2017-03-07T18:57:03.412Z,5.6
2017-03-07T19:02:02.759Z,5.5
2017-03-07T19:07:02.927Z,5.4
2017-03-07T19:12:02.836Z,5.3
2017-03-07T19:17:03.011Z,5.3
2017-03-07T19:22:02.668Z,5.2
2017-03-07T19:27:03.599Z,5.1
2017-03-07T19:32:02.947Z,5.0
2017-03-07T19:37:03.458Z,5.0
2017-03-07T19:42:03.245Z,4.8
2017-03-07T19:47:03.153Z,4.7
2017-03-07T19:52:03.228Z,4.7
2017-03-07T19:57:03.453Z,4.8
2017-03-07T20:02:02.884Z,4.8
2017-03-07T20:07:03.017Z,4.8
2017-03-07T20:12:03.173Z,4.8
2017-03-07T20:17:03.303Z,4.9
2017-03-07T20:22:03.589Z,4.8
2017-03-07T20:27:02.749Z,4.8
2017-03-07T20:32:03.150Z,4.6
2017-03-07T20:37:02.689Z,4.6
2017-03-07T20:42:02.901Z,4.5
2017-03-07T20:47:02.708Z,4.5
2017-03-07T20:52:02.587Z,4.5
2017-03-07T20:57:03.568Z,4.5
2017-03-07T21:02:02.897Z,4.4
2017-03-07T21:07:03.466Z,4.4
2017-03-07T21:12:02.820Z,4.4
2017-03-07T21:17:03.578Z,4.4
2017-03-07T21:22:03.020Z,4.6
2017-03-07T21:27:03.618Z,4.5
2017-03-07T21:32:02.803Z,4.6
2017-03-07T21:37:02.769Z,4.6
2017-03-07T21:42:03.542Z,4.6
2017-03-07T21:47:03.324Z,4.5
2017-03-07T21:52:03.374Z,4.5
2017-03-07T21:57:03.383Z,4.5
2017-03-07T22:02:03.539Z,4.4
2017-03-07T22:07:03.348Z,4.4
2017-03-07T22:12:03.316Z,4.4
2017-03-07T22:17:03.115Z,4.4
2017-03-07T22:22:03.493Z,4.5
2017-03-07T22:27:03.290Z,4.5
2017-03-07T22:32:02.971Z,4.5
2017-03-07T22:37:02.850Z,4.4
2017-03-07T22:42:02.722Z,4.4
2017-03-07T22:47:03.068Z,4.5
2017-03-07T22:52:03.467Z,4.4
2017-03-07T22:57:02.984Z,4.5
2017-03-07T23:02:03.459Z,4.5
2017-03-07T23:07:03.215Z,4.4
2017-03-07T23:12:03.193Z,4.5
2017-03-07T23:22:03.837Z,4.5
2017-03-07T23:27:03.243Z,4.4
2017-03-07T23:32:03.188Z,4.5
2017-03-07T23:37:02.855Z,4.5
2017-03-07T23:42:02.771Z,4.5
2017-03-07T23:47:03.514Z,4.6
2017-03-07T23:52:03.235Z,4.6
2017-03-07T23:57:02.942Z,4.6
